createdAt,value
2019-02-15T17:33:09.235Z,70.92
2019-02-15T17:38:17.071Z,71.09
2019-02-15T17:40:53.274Z,71.25
2019-02-15T17:43:29.591Z,71.05
2019-02-15T17:46:01.298Z,70.92
2019-02-15T17:48:32.365Z,70.82
2019-02-15T17:51:04.062Z,71.02
2019-02-15T17:53:35.818Z,71.15
2019-02-15T17:56:14.171Z,71.16
2019-02-15T17:58:46.242Z,71.34
2019-02-15T18:01:16.486Z,71.49
2019-02-15T18:03:53.298Z,71.85
2019-02-15T18:06:25.875Z,71.75
2019-02-15T18:09:00.733Z,71.68
2019-02-15T18:11:32.040Z,71.96
2019-02-15T18:16:52.923Z,72.16
2019-02-15T18:19:30.597Z,72.68
2019-02-15T18:22:04.095Z,72.74
2019-02-15T18:24:35.399Z,73.07
2019-02-15T18:27:05.835Z,73.27
2019-02-15T18:29:39.875Z,73.57
2019-02-15T18:32:12.936Z,73.70
2019-02-15T18:34:48.240Z,74.04
2019-02-15T18:37:22.142Z,74.02
2019-02-15T18:40:03.614Z,74.30
2019-02-15T18:42:39.356Z,74.84
2019-02-15T18:45:16.408Z,75.16
2019-02-15T18:47:48.219Z,75.03
2019-02-15T18:50:27.581Z,75.29
2019-02-15T18:52:57.834Z,75.22
2019-02-15T18:55:28.715Z,75.33
2019-02-15T18:58:00.085Z,75.47
2019-02-15T19:00:32.150Z,75.81
2019-02-15T19:03:06.210Z,75.79
2019-02-15T19:05:40.176Z,75.77
2019-02-15T19:08:12.485Z,75.85
2019-02-15T19:10:48.042Z,75.92
2019-02-15T19:13:19.595Z,76.42
2019-02-15T19:15:56.565Z,76.29
2019-02-15T19:18:31.965Z,76.27
2019-02-15T19:21:06.797Z,76.37
2019-02-15T19:23:40.842Z,76.55
2019-02-15T19:26:17.782Z,76.60
2019-02-15T19:28:47.117Z,76.79
2019-02-15T19:31:19.428Z,77.06
2019-02-15T19:33:57.993Z,77.19
2019-02-15T19:36:34.619Z,77.37
2019-02-15T19:39:05.458Z,77.34
2019-02-15T19:41:40.926Z,77.54
2019-02-15T19:44:18.042Z,77.57
2019-02-15T19:46:55.883Z,77.67
2019-02-15T19:49:38.578Z,77.65
2019-02-15T19:52:02.796Z,77.51
2019-02-15T19:54:39.867Z,77.68
2019-02-15T19:57:12.558Z,77.71
2019-02-15T19:59:53.752Z,78.00
2019-02-15T20:02:23.572Z,77.84
2019-02-15T20:04:59.067Z,77.88
2019-02-15T20:07:34.464Z,78.03
2019-02-15T20:10:04.100Z,78.04
2019-02-15T20:12:36.367Z,78.16
2019-02-15T20:15:09.886Z,78.22
2019-02-15T20:17:42.981Z,78.17
2019-02-15T20:20:15.731Z,78.34
2019-02-15T20:22:55.106Z,78.43
2019-02-15T20:25:26.781Z,78.49
2019-02-15T20:28:13.313Z,78.58
2019-02-15T20:30:35.981Z,78.47
2019-02-15T20:33:11.259Z,78.51
2019-02-15T20:35:40.766Z,78.71
2019-02-15T20:38:11.370Z,78.74
2019-02-15T20:40:45.730Z,78.47
2019-02-15T20:43:20.389Z,78.28
2019-02-15T20:45:57.977Z,78.80
2019-02-15T20:48:29.071Z,78.70
2019-02-15T20:51:09.197Z,78.85
2019-02-15T20:53:45.978Z,78.67
2019-02-15T20:56:15.967Z,78.77
2019-02-15T20:58:46.205Z,78.82
2019-02-15T21:03:59.448Z,78.93
2019-02-15T21:06:29.653Z,78.92
2019-02-15T21:09:13.730Z,79.09
2019-02-15T21:11:44.699Z,78.99
2019-02-15T21:14:16.007Z,79.10
2019-02-15T21:16:46.729Z,79.19
2019-02-15T21:22:01.615Z,79.20
2019-02-15T21:24:34.199Z,79.30
2019-02-15T21:27:07.473Z,79.37
2019-02-15T21:29:46.540Z,79.19
2019-02-15T21:32:23.582Z,79.33
2019-02-15T21:34:55.582Z,79.22
2019-02-15T21:37:27.971Z,79.40
2019-02-15T21:40:07.252Z,79.40
2019-02-15T21:42:41.325Z,79.48
2019-02-15T21:45:14.147Z,79.60
2019-02-15T21:47:52.511Z,79.51
2019-02-15T21:50:30.915Z,79.74
2019-02-15T21:53:02.426Z,79.67
2019-02-15T21:55:32.982Z,79.87
2019-02-15T21:58:03.551Z,80.01
2019-02-15T22:00:40.449Z,80.06
2019-02-15T22:03:11.589Z,80.07
2019-02-15T22:05:45.078Z,80.09
2019-02-15T22:08:18.131Z,79.95
2019-02-15T22:10:58.420Z,79.97
2019-02-15T22:13:39.500Z,79.90
2019-02-15T22:16:15.167Z,79.99
2019-02-15T22:18:54.762Z,79.94
2019-02-15T22:21:27.252Z,79.84
2019-02-15T22:23:58.945Z,79.87
2019-02-15T22:26:37.667Z,80.25
2019-02-15T22:29:12.190Z,80.01
2019-02-15T22:31:45.922Z,79.96
2019-02-15T22:34:25.537Z,79.97
2019-02-15T22:39:36.707Z,80.37
2019-02-15T22:42:07.441Z,80.20
2019-02-15T22:44:37.882Z,80.27
2019-02-15T22:47:10.860Z,80.21
2019-02-15T22:49:43.535Z,80.31
2019-02-15T22:52:18.704Z,80.22
2019-02-15T22:54:52.867Z,80.23
2019-02-15T22:57:25.424Z,80.63
2019-02-15T23:00:01.100Z,80.61
2019-02-15T23:02:30.142Z,80.57
2019-02-15T23:05:05.196Z,80.52
2019-02-15T23:07:36.342Z,80.72
2019-02-15T23:10:06.879Z,80.80
2019-02-15T23:12:38.786Z,80.58
2019-02-15T23:15:11.272Z,80.83
2019-02-15T23:17:42.948Z,80.93
2019-02-15T23:20:14.066Z,80.99
2019-02-15T23:22:46.746Z,81.06
2019-02-15T23:25:22.740Z,81.02
2019-02-15T23:27:54.285Z,81.14
2019-02-15T23:30:27.430Z,81.02
2019-02-15T23:32:58.861Z,81.45
2019-02-15T23:35:38.904Z,81.35
2019-02-15T23:38:08.383Z,81.49
2019-02-15T23:40:39.934Z,81.50
2019-02-15T23:43:19.694Z,81.45
2019-02-15T23:45:48.877Z,81.58
2019-02-15T23:48:19.018Z,81.67
2019-02-15T23:50:54.976Z,81.69
2019-02-15T23:53:19.769Z,81.59
2019-02-15T23:55:51.152Z,81.94
2019-02-15T23:58:21.504Z,81.77
